Time;durP1;ratioP1;P1;durP2;ratioP2;P2;SDS_P1;SDS_P2;PMS_P1;PMS_P2;Temp;Humidity;BMP_temperature;BMP_pressure;BME280_temperature;BME280_humidity;BME280_pressure;Samples;Min_cycle;Max_cycle;Signal;HPM_P1;HPM_P2
2022/04/30 00:00:08;;;;;;;32.37;29.77;;;;;;;21.80;39.17;95448.25;6104476;28;104219;-55
2022/04/30 00:03:10;;;;;;;32.53;29.83;;;;;;;21.75;39.15;95450.22;6127913;28;103875;-53
2022/04/30 00:06:12;;;;;;;31.93;29.33;;;;;;;21.81;39.39;95452.47;6151940;28;103783;-54
2022/04/30 00:09:14;;;;;;;32.43;29.90;;;;;;;21.78;39.00;95433.63;6146520;28;104990;-55
2022/04/30 00:12:16;;;;;;;33.47;30.67;;;;;;;21.80;39.33;95442.13;6127801;28;103948;-55
2022/04/30 00:15:19;;;;;;;32.80;30.00;;;;;;;21.79;39.14;95440.53;6142468;28;104862;-55
2022/04/30 00:18:20;;;;;;;31.97;29.40;;;;;;;21.74;39.19;95428.13;6146424;28;103762;-55
2022/04/30 00:21:22;;;;;;;33.17;30.47;;;;;;;21.74;38.99;95425.44;6137941;28;104951;-52
2022/04/30 00:24:26;;;;;;;32.60;29.90;;;;;;;21.78;39.40;95439.75;6138386;28;104610;-55
2022/04/30 00:27:28;;;;;;;33.00;30.40;;;;;;;21.79;39.05;95438.66;6153904;28;104899;-55
2022/04/30 00:30:30;;;;;;;31.87;29.37;;;;;;;21.79;38.85;95435.22;6151518;28;104619;-55
2022/04/30 00:33:32;;;;;;;31.83;29.23;;;;;;;21.76;38.90;95441.94;6148752;28;104855;-54
2022/04/30 00:36:34;;;;;;;31.67;29.17;;;;;;;21.75;39.15;95437.69;6136118;28;104852;-54
2022/04/30 00:39:35;;;;;;;33.53;30.83;;;;;;;21.77;38.99;95437.38;6139089;28;103901;-55
2022/04/30 00:42:38;;;;;;;31.90;29.30;;;;;;;21.77;39.22;95440.06;6141827;28;103391;-54
2022/04/30 00:45:47;;;;;;;33.77;31.07;;;;;;;21.76;39.04;95446.47;6123767;28;104081;-55
2022/04/30 00:48:50;;;;;;;34.40;31.50;;;;;;;21.76;39.48;95443.81;6144477;28;104112;-55
2022/04/30 00:51:54;;;;;;;33.67;30.97;;;;;;;21.77;39.47;95435.50;6132351;28;103963;-55
2022/04/30 00:55:02;;;;;;;33.40;30.70;;;;;;;21.75;38.65;95442.22;6166520;28;103724;-55
2022/04/30 00:58:06;;;;;;;32.83;30.10;;;;;;;21.75;39.34;95428.91;6131953;28;105053;-55
2022/04/30 01:01:08;;;;;;;33.73;30.93;;;;;;;21.76;39.34;95431.28;6150629;28;103775;-55
2022/04/30 01:04:11;;;;;;;32.40;29.90;;;;;;;21.75;39.04;95423.56;6146516;28;104824;-53
2022/04/30 01:07:13;;;;;;;32.73;30.13;;;;;;;21.76;39.26;95425.16;6134516;28;103560;-55
2022/04/30 01:10:15;;;;;;;32.53;29.93;;;;;;;21.74;39.24;95430.78;6161357;28;104942;-55
2022/04/30 01:13:18;;;;;;;34.60;31.80;;;;;;;21.75;39.00;95439.56;6165480;28;103604;-53
2022/04/30 01:16:20;;;;;;;33.87;30.97;;;;;;;21.75;39.23;95431.56;6128349;28;105317;-55
2022/04/30 01:19:23;;;;;;;33.70;31.10;;;;;;;21.76;39.42;95435.81;6131673;28;103623;-54
2022/04/30 01:22:39;;;;;;;34.27;31.47;;;;;;;21.73;38.89;95423.88;6157002;28;104765;-54
2022/04/30 01:25:44;;;;;;;32.70;30.07;;;;;;;21.74;39.07;95422.00;6162508;28;103854;-55
2022/04/30 01:28:46;;;;;;;34.37;31.50;;;;;;;21.74;39.42;95427.31;6166633;28;105010;-55
2022/04/30 01:38:36;;;;;;;32.70;30.00;;;;;;;21.70;39.12;95423.69;6153740;28;103831;-55
2022/04/30 01:41:38;;;;;;;33.83;31.10;;;;;;;21.70;39.20;95421.81;6132014;28;105017;-55
2022/04/30 01:44:41;;;;;;;31.77;29.20;;;;;;;21.72;39.16;95419.63;6117791;28;104328;-52
2022/04/30 01:47:46;;;;;;;31.83;29.23;;;;;;;21.71;38.99;95422.59;6161059;28;103383;-51
2022/04/30 01:50:47;;;;;;;33.57;30.87;;;;;;;21.72;38.92;95424.16;6165625;28;103330;-51
2022/04/30 01:53:50;;;;;;;32.33;29.63;;;;;;;21.71;39.30;95428.72;6141984;28;104813;-50
2022/04/30 01:56:52;;;;;;;32.00;29.50;;;;;;;21.72;39.18;95422.28;6139371;28;104177;-51
2022/04/30 01:59:54;;;;;;;33.30;30.70;;;;;;;21.61;39.38;95406.78;6140397;28;105021;-51
2022/04/30 02:03:08;;;;;;;32.53;30.00;;;;;;;21.61;39.42;95406.78;6142827;28;104678;-51
2022/04/30 02:06:10;;;;;;;32.87;30.20;;;;;;;21.69;39.03;95422.09;6128858;28;103964;-53
2022/04/30 02:09:14;;;;;;;33.23;30.53;;;;;;;21.71;39.52;95422.59;6140049;28;103662;-51
2022/04/30 02:12:16;;;;;;;32.27;29.57;;;;;;;21.69;39.04;95419.44;6139667;28;103668;-53
2022/04/30 02:15:19;;;;;;;30.93;28.37;;;;;;;21.69;39.38;95420.22;6147163;28;104165;-52
2022/04/30 02:18:24;;;;;;;32.47;29.87;;;;;;;21.69;38.95;95414.09;6157003;28;104625;-52
2022/04/30 02:21:29;;;;;;;32.50;29.80;;;;;;;21.69;39.35;95409.56;6162186;28;105962;-51
2022/04/30 02:24:32;;;;;;;30.87;28.47;;;;;;;21.68;39.32;95412.53;6165224;28;104763;-52
2022/04/30 02:27:35;;;;;;;30.60;28.10;;;;;;;21.65;39.43;95411.22;6134789;28;104748;-51
2022/04/30 02:30:38;;;;;;;31.10;28.60;;;;;;;21.68;39.10;95407.19;6158432;28;103885;-51
2022/04/30 02:33:40;;;;;;;29.30;27.00;;;;;;;21.64;38.81;95401.66;6151554;28;103696;-51
2022/04/30 02:36:42;;;;;;;30.53;28.03;;;;;;;21.66;39.43;95404.03;6164892;28;104700;-51
2022/04/30 02:39:45;;;;;;;30.20;27.80;;;;;;;21.66;39.12;95398.69;6131077;28;104971;-51
2022/04/30 02:42:47;;;;;;;29.60;27.20;;;;;;;21.65;39.07;95405.09;6149463;28;105066;-51
2022/04/30 02:45:50;;;;;;;29.23;26.83;;;;;;;21.66;38.95;95410.13;6160710;28;103822;-51
2022/04/30 02:48:52;;;;;;;29.43;27.13;;;;;;;21.67;39.31;95416.25;6140118;28;103615;-51
2022/04/30 02:51:54;;;;;;;29.33;26.93;;;;;;;21.65;39.37;95413.88;6140730;28;103921;-51
2022/04/30 02:54:55;;;;;;;30.80;28.30;;;;;;;21.66;39.48;95409.34;6139857;28;103675;-50
2022/04/30 03:01:19;;;;;;;27.77;25.57;;;;;;;21.65;38.99;95407.75;6144756;28;104509;-51
2022/04/30 03:04:21;;;;;;;29.20;26.90;;;;;;;21.64;39.52;95406.19;6138980;28;103349;-51
2022/04/30 03:07:23;;;;;;;28.07;25.80;;;;;;;21.65;38.99;95391.78;6136359;28;104989;-51
2022/04/30 03:10:25;;;;;;;28.57;26.30;;;;;;;21.59;39.28;95392.97;6142556;28;103186;-54
2022/04/30 03:13:27;;;;;;;28.53;26.23;;;;;;;21.64;38.97;95395.53;6144189;28;104353;-52
2022/04/30 03:23:10;;;;;;;27.43;25.23;;;;;;;21.63;39.05;95400.06;6161540;28;104967;-54
2022/04/30 03:26:12;;;;;;;26.93;24.73;;;;;;;21.59;39.43;95398.28;6139027;28;103959;-53
2022/04/30 03:29:15;;;;;;;27.00;24.80;;;;;;;21.62;39.22;95395.03;6153298;28;103899;-52
2022/04/30 03:32:17;;;;;;;26.80;24.60;;;;;;;21.64;39.29;95400.84;6164080;28;103920;-51
2022/04/30 03:35:19;;;;;;;26.53;24.43;;;;;;;21.62;39.44;95400.38;6153873;28;104401;-51
2022/04/30 03:38:21;;;;;;;24.67;22.73;;;;;;;21.58;39.37;95397.50;6159405;28;103889;-52
2022/04/30 03:41:22;;;;;;;26.50;24.40;;;;;;;21.62;38.95;95411.03;6152975;28;103829;-52
2022/04/30 03:44:26;;;;;;;26.13;24.13;;;;;;;21.63;39.24;95409.94;6163484;28;103642;-52
2022/04/30 03:47:27;;;;;;;24.10;22.20;;;;;;;21.61;39.37;95415.56;6153178;28;104772;-51
2022/04/30 03:50:29;;;;;;;25.00;22.77;;;;;;;21.61;39.27;95417.44;6129172;28;103880;-51
2022/04/30 03:53:31;;;;;;;25.17;23.00;;;;;;;21.64;39.01;95422.16;6119448;28;103708;-52
2022/04/30 03:56:33;;;;;;;23.87;21.97;;;;;;;21.59;39.33;95420.38;6138531;28;104857;-51
2022/04/30 03:59:34;;;;;;;24.67;22.67;;;;;;;21.62;39.44;95425.13;6127048;28;103036;-52
2022/04/30 04:02:41;;;;;;;24.93;22.93;;;;;;;21.60;39.16;95418.50;6156167;28;104902;-52
2022/04/30 04:05:43;;;;;;;24.20;22.30;;;;;;;21.60;39.09;95429.97;6163098;28;103648;-52
2022/04/30 04:08:50;;;;;;;24.57;22.57;;;;;;;21.61;39.26;95430.75;6146508;28;104789;-51
2022/04/30 04:11:52;;;;;;;23.83;21.83;;;;;;;21.60;39.42;95427.28;6140062;28;104781;-54
2022/04/30 04:18:14;;;;;;;22.60;20.77;;;;;;;21.61;39.37;95428.09;6158159;28;103820;-54
2022/04/30 04:21:16;;;;;;;22.70;20.90;;;;;;;21.63;39.05;95428.56;6154079;28;104971;-55
2022/04/30 04:27:38;;;;;;;22.83;21.13;;;;;;;21.63;39.31;95436.56;6137268;28;104875;-55
2022/04/30 04:30:40;;;;;;;21.60;19.90;;;;;;;21.65;39.16;95434.41;6157100;28;103756;-55
2022/04/30 04:33:42;;;;;;;22.97;21.07;;;;;;;21.65;39.13;95439.72;6132220;28;103930;-55
2022/04/30 04:36:43;;;;;;;22.00;20.30;;;;;;;21.64;39.66;95432.81;6138091;28;103890;-54
2022/04/30 04:39:45;;;;;;;22.70;20.90;;;;;;;21.66;39.01;95423.44;6138461;28;103760;-54
2022/04/30 04:42:47;;;;;;;21.77;20.07;;;;;;;21.66;39.38;95428.00;6145876;28;104984;-54
2022/04/30 04:45:49;;;;;;;22.80;20.93;;;;;;;21.66;39.11;95435.97;6153777;28;103925;-54
2022/04/30 04:48:51;;;;;;;22.27;20.47;;;;;;;21.67;39.54;95432.22;6154113;28;103603;-55
2022/04/30 04:51:54;;;;;;;22.13;20.37;;;;;;;21.67;39.32;95426.91;6160466;28;104313;-54
2022/04/30 04:54:57;;;;;;;22.27;20.47;;;;;;;21.68;39.38;95428.50;6126366;28;103672;-54
2022/04/30 04:57:59;;;;;;;20.53;18.93;;;;;;;21.70;39.23;95437.00;6144779;28;104985;-54
2022/04/30 05:01:01;;;;;;;21.17;19.50;;;;;;;21.69;39.33;95438.06;6154004;28;104950;-54
2022/04/30 05:04:03;;;;;;;21.27;19.57;;;;;;;21.69;39.20;95438.88;6162991;28;104822;-54
2022/04/30 05:07:04;;;;;;;21.43;19.73;;;;;;;21.70;39.67;95444.97;6128059;28;103753;-54
2022/04/30 05:10:06;;;;;;;21.40;19.70;;;;;;;21.70;39.76;95452.97;6145005;28;103386;-54
2022/04/30 05:13:08;;;;;;;20.87;19.00;;;;;;;21.71;39.56;95447.34;6129362;28;104136;-53
2022/04/30 05:16:11;;;;;;;21.50;19.87;;;;;;;21.70;39.67;95450.31;6141454;28;104678;-54
2022/04/30 05:19:12;;;;;;;20.40;18.80;;;;;;;21.70;39.65;95444.97;6146842;28;104443;-54
2022/04/30 05:22:14;;;;;;;20.30;18.73;;;;;;;21.71;39.57;95449.22;6153515;28;104128;-54
2022/04/30 05:25:16;;;;;;;21.33;19.63;;;;;;;21.70;39.27;95451.09;6136409;28;103789;-54
2022/04/30 05:28:18;;;;;;;20.93;19.30;;;;;;;21.74;39.65;95456.63;6125959;28;103648;-54
2022/04/30 05:31:19;;;;;;;20.27;18.77;;;;;;;21.73;39.25;95453.19;6148434;28;103003;-53
2022/04/30 05:34:21;;;;;;;19.63;18.03;;;;;;;21.74;39.36;95454.75;6163134;28;104157;-52
2022/04/30 05:37:23;;;;;;;18.07;16.53;;;;;;;21.73;39.55;95453.19;6156964;28;104964;-53
2022/04/30 05:40:25;;;;;;;18.27;16.67;;;;;;;21.77;39.32;95450.72;6137127;28;103407;-52
2022/04/30 05:43:26;;;;;;;17.67;16.27;;;;;;;21.75;39.25;95453.66;6155842;28;103576;-52
2022/04/30 05:46:28;;;;;;;18.57;16.97;;;;;;;21.75;39.58;95458.22;6154988;28;103859;-52
2022/04/30 05:49:30;;;;;;;16.00;14.70;;;;;;;21.73;39.68;95458.50;6155627;28;103943;-52
2022/04/30 05:52:34;;;;;;;17.40;15.90;;;;;;;21.76;39.28;95457.13;6147053;28;104397;-53
2022/04/30 05:55:35;;;;;;;16.33;15.00;;;;;;;21.86;39.63;95462.31;6149432;28;104882;-54
2022/04/30 05:58:37;;;;;;;16.60;15.10;;;;;;;21.94;39.48;95453.63;6139778;28;103954;-52
2022/04/30 06:01:39;;;;;;;18.40;16.80;;;;;;;21.99;40.15;95461.53;6139346;28;103667;-52
2022/04/30 06:04:43;;;;;;;16.80;15.20;;;;;;;21.96;39.79;95464.00;6132021;28;103731;-53
2022/04/30 06:07:45;;;;;;;15.27;13.70;;;;;;;21.90;39.21;95457.19;6157788;28;103687;-52
2022/04/30 06:10:47;;;;;;;13.90;12.70;;;;;;;21.07;40.02;95470.19;6158105;28;104780;-52
2022/04/30 06:13:49;;;;;;;13.20;12.00;;;;;;;21.25;39.98;95465.94;6135091;28;104346;-53
2022/04/30 06:16:50;;;;;;;14.33;12.50;;;;;;;21.47;39.94;95466.09;6135150;28;105293;-52
2022/04/30 06:19:52;;;;;;;12.97;11.87;;;;;;;21.68;39.91;95465.81;6140650;28;104663;-54
2022/04/30 06:22:54;;;;;;;12.77;11.50;;;;;;;21.77;39.87;95464.03;6159038;28;103829;-53
2022/04/30 06:25:55;;;;;;;14.27;12.87;;;;;;;21.84;39.45;95469.00;6149112;28;104462;-53
2022/04/30 06:28:57;;;;;;;12.10;11.10;;;;;;;21.90;40.04;95465.19;6153555;28;103852;-52
2022/04/30 06:31:59;;;;;;;13.50;12.20;;;;;;;21.97;39.51;95466.34;6163789;28;103892;-52
2022/04/30 06:35:04;;;;;;;17.07;11.60;;;;;;;21.99;39.65;95466.06;6159968;28;104707;-53
2022/04/30 06:38:09;;;;;;;12.67;11.43;;;;;;;22.06;40.82;95469.94;6133212;28;104161;-53
2022/04/30 06:41:11;;;;;;;13.30;11.93;;;;;;;22.11;43.54;95469.03;6159174;28;103951;-54
2022/04/30 06:44:12;;;;;;;13.00;11.70;;;;;;;22.14;43.46;95479.09;6162679;28;103961;-53
2022/04/30 06:47:14;;;;;;;14.03;11.47;;;;;;;22.14;41.40;95470.31;6125636;28;104879;-53
2022/04/30 06:50:16;;;;;;;11.80;10.53;;;;;;;22.10;40.85;95462.91;6135862;28;104467;-53
2022/04/30 06:59:59;;;;;;;14.70;10.30;;;;;;;22.34;40.79;95462.72;6139443;28;103718;-54
2022/04/30 07:03:07;;;;;;;13.30;12.00;;;;;;;22.41;40.49;95463.13;6152680;28;103801;-54
2022/04/30 07:06:12;;;;;;;13.20;12.00;;;;;;;22.44;40.10;95456.41;6149001;28;104023;-53
2022/04/30 07:09:17;;;;;;;13.40;11.20;;;;;;;22.45;40.17;95451.88;6155172;28;104044;-53
2022/04/30 07:12:19;;;;;;;13.37;10.27;;;;;;;22.35;39.71;95458.22;6135264;28;104911;-54
2022/04/30 07:15:21;;;;;;;15.60;11.43;;;;;;;22.41;39.25;95460.47;6146542;28;104849;-53
2022/04/30 07:18:23;;;;;;;11.43;10.33;;;;;;;22.42;39.06;95448.72;6139216;28;103756;-55
2022/04/30 07:21:24;;;;;;;11.23;9.67;;;;;;;22.52;39.01;95449.59;6114533;28;105228;-52
2022/04/30 07:24:27;;;;;;;14.63;10.17;;;;;;;22.61;39.53;95456.63;6131856;28;103343;-52
2022/04/30 07:27:28;;;;;;;11.70;10.50;;;;;;;22.66;39.18;95459.16;6143713;28;103844;-54
2022/04/30 07:30:30;;;;;;;11.80;10.53;;;;;;;22.71;39.37;95455.63;6164308;28;105339;-53
2022/04/30 07:33:32;;;;;;;12.00;10.90;;;;;;;22.75;39.75;95453.16;6151329;28;103897;-53
2022/04/30 07:36:36;;;;;;;11.20;10.10;;;;;;;22.83;39.82;95452.41;6160219;28;103690;-52
2022/04/30 07:39:38;;;;;;;11.17;10.03;;;;;;;22.89;39.62;95441.34;6160014;28;104712;-52
2022/04/30 07:42:40;;;;;;;11.17;10.10;;;;;;;22.96;40.00;95448.94;6139843;28;104022;-53
2022/04/30 07:45:42;;;;;;;11.50;10.40;;;;;;;23.00;39.54;95441.91;6144479;28;104770;-52
2022/04/30 07:48:43;;;;;;;11.07;10.10;;;;;;;22.99;39.63;95434.97;6142545;28;104841;-53
2022/04/30 07:51:57;;;;;;;11.53;10.57;;;;;;;22.98;40.28;95438.75;6161623;28;103893;-53
2022/04/30 07:55:03;;;;;;;10.50;9.60;;;;;;;23.02;39.76;95434.41;6162725;28;104008;-53
2022/04/30 07:58:04;;;;;;;11.27;10.20;;;;;;;22.98;39.58;95434.19;6150657;28;103911;-54
2022/04/30 08:01:06;;;;;;;10.17;9.37;;;;;;;23.02;39.35;95442.41;6156463;28;105459;-51
2022/04/30 08:04:08;;;;;;;10.80;9.80;;;;;;;23.05;39.36;95439.13;6152280;28;104697;-52
2022/04/30 08:07:10;;;;;;;12.37;11.17;;;;;;;22.99;39.34;95430.44;6137109;28;104468;-53
2022/04/30 08:10:12;;;;;;;11.60;10.67;;;;;;;23.05;39.30;95431.13;6142340;28;103695;-52
2022/04/30 08:13:14;;;;;;;10.80;9.70;;;;;;;23.08;39.12;95427.84;6157019;28;104800;-52
2022/04/30 08:16:16;;;;;;;11.07;10.07;;;;;;;23.10;38.77;95420.31;6162457;28;104838;-52
2022/04/30 08:19:17;;;;;;;11.33;10.30;;;;;;;23.13;39.75;95416.25;6136224;28;104675;-51
2022/04/30 08:22:19;;;;;;;12.00;10.80;;;;;;;23.18;40.08;95419.59;6138523;28;103710;-53
2022/04/30 08:25:21;;;;;;;12.73;11.53;;;;;;;23.11;40.43;95423.78;6161217;28;104310;-54
2022/04/30 08:28:23;;;;;;;13.07;10.90;;;;;;;23.04;39.98;95415.41;6143594;28;104524;-53
2022/04/30 08:31:25;;;;;;;10.93;9.80;;;;;;;23.07;40.18;95420.94;6135129;28;103651;-53
2022/04/30 08:34:27;;;;;;;10.60;9.70;;;;;;;23.09;39.39;95410.75;6147860;28;103756;-53
2022/04/30 08:37:29;;;;;;;10.10;9.20;;;;;;;23.15;39.33;95408.72;6132423;28;103899;-54
2022/04/30 08:40:31;;;;;;;15.80;10.33;;;;;;;23.15;39.96;95412.19;6128983;28;105409;-54
2022/04/30 08:43:33;;;;;;;9.33;8.50;;;;;;;23.17;39.57;95410.00;6107282;28;104937;-54
2022/04/30 08:46:35;;;;;;;9.00;8.20;;;;;;;23.16;39.62;95412.97;6136190;28;104840;-54
2022/04/30 08:49:40;;;;;;;10.40;9.30;;;;;;;23.12;40.04;95409.34;6133102;28;104973;-54
2022/04/30 08:52:42;;;;;;;10.27;8.80;;;;;;;23.05;40.75;95409.78;6130468;28;104701;-54
2022/04/30 08:55:44;;;;;;;10.73;9.60;;;;;;;23.09;40.76;95412.63;6129756;28;104281;-54
2022/04/30 08:58:46;;;;;;;13.70;9.27;;;;;;;23.09;41.01;95413.41;6145156;28;104665;-53
2022/04/30 09:01:53;;;;;;;13.53;10.93;;;;;;;23.09;40.96;95407.28;6131799;28;103941;-54
2022/04/30 09:04:55;;;;;;;11.97;10.60;;;;;;;23.04;40.78;95400.19;6116914;28;103576;-54
2022/04/30 09:07:59;;;;;;;12.47;11.23;;;;;;;23.00;40.94;95397.31;6134582;28;104290;-54
2022/04/30 09:11:07;;;;;;;12.87;11.20;;;;;;;22.97;40.69;95389.13;6131714;28;103873;-54
2022/04/30 09:14:09;;;;;;;11.40;10.30;;;;;;;22.93;41.17;95398.84;6130743;28;103788;-54
2022/04/30 09:17:14;;;;;;;11.27;10.07;;;;;;;23.04;41.04;95394.84;6128462;28;104078;-54
2022/04/30 09:20:19;;;;;;;12.57;10.87;;;;;;;23.12;41.09;95393.31;6137008;28;103415;-54
2022/04/30 09:23:28;;;;;;;11.43;10.33;;;;;;;23.15;41.07;95384.69;6138045;28;102898;-53
2022/04/30 09:26:40;;;;;;;12.40;10.10;;;;;;;23.16;40.99;95391.63;6152956;28;103742;-53
2022/04/30 09:29:42;;;;;;;12.23;11.00;;;;;;;23.16;41.21;95387.06;6143538;28;104668;-53
2022/04/30 09:32:44;;;;;;;13.03;11.83;;;;;;;23.21;41.13;95394.97;6138627;28;104862;-54
2022/04/30 09:39:15;;;;;;;14.40;13.03;;;;;;;23.23;42.05;95371.44;6144573;28;103701;-54
2022/04/30 09:42:17;;;;;;;15.57;13.60;;;;;;;23.27;42.04;95377.72;6136081;28;104469;-54
2022/04/30 09:45:27;;;;;;;13.90;12.50;;;;;;;23.29;42.23;95370.22;6136523;28;104030;-53
2022/04/30 09:55:11;;;;;;;13.83;12.33;;;;;;;23.35;41.58;95364.75;6140716;28;103750;-54
2022/04/30 09:58:20;;;;;;;15.20;13.63;;;;;;;23.35;41.96;95364.75;6156933;28;103979;-52
2022/04/30 10:01:22;;;;;;;22.07;20.17;;;;;;;23.37;42.96;95368.72;6125177;28;104496;-58
2022/04/30 10:04:26;;;;;;;33.67;30.93;;;;;;;23.41;43.07;95358.19;6136222;28;103885;-53
2022/04/30 10:07:32;;;;;;;35.90;32.80;;;;;;;23.41;42.93;95358.19;6153161;28;103520;-52
2022/04/30 10:10:51;;;;;;;40.17;37.07;;;;;;;23.41;43.40;95355.53;6130297;28;104643;-53
2022/04/30 10:14:01;;;;;;;38.10;35.00;;;;;;;23.27;43.19;95344.91;6141627;28;103812;-53
2022/04/30 10:17:16;;;;;;;35.67;32.33;;;;;;;23.28;42.83;95341.91;6136043;28;103540;-54
2022/04/30 10:20:34;;;;;;;35.53;32.80;;;;;;;23.24;42.32;95340.97;6137780;28;104702;-54
2022/04/30 10:23:36;;;;;;;34.70;31.40;;;;;;;23.23;42.05;95323.38;6136975;28;104683;-53
2022/04/30 10:26:58;;;;;;;32.63;30.10;;;;;;;23.24;42.32;95330.28;6136046;28;105178;-53
2022/04/30 10:30:00;;;;;;;30.00;27.37;;;;;;;23.24;41.31;95324.94;6139262;28;103777;-55
2022/04/30 10:33:07;;;;;;;26.10;23.93;;;;;;;23.21;40.47;95330.91;6143546;28;104986;-53
2022/04/30 10:36:11;;;;;;;24.17;22.37;;;;;;;23.20;40.02;95323.97;6150457;28;103591;-53
2022/04/30 10:39:18;;;;;;;23.03;21.03;;;;;;;23.18;40.37;95318.13;6147383;28;105463;-54
2022/04/30 10:42:29;;;;;;;22.17;20.40;;;;;;;23.18;40.18;95317.34;6142815;28;104933;-53
2022/04/30 10:45:31;;;;;;;14.70;13.40;;;;;;;22.91;39.41;95315.63;6161589;28;104761;-52
2022/04/30 10:48:34;;;;;;;16.90;15.50;;;;;;;22.85;39.84;95317.63;6142479;28;104914;-55
2022/04/30 10:51:40;;;;;;;14.30;13.00;;;;;;;22.93;39.81;95324.13;6134829;28;103841;-53
2022/04/30 10:54:44;;;;;;;11.90;11.00;;;;;;;22.95;39.11;95328.03;6135876;28;103425;-54
2022/04/30 10:57:46;;;;;;;10.87;9.97;;;;;;;22.88;38.50;95321.56;6148583;28;106585;-54
2022/04/30 11:00:48;;;;;;;9.67;8.97;;;;;;;22.85;38.43;95322.16;6142896;28;103739;-53
2022/04/30 11:03:50;;;;;;;9.63;8.83;;;;;;;22.92;38.28;95318.00;6149382;28;104462;-53
2022/04/30 11:06:53;;;;;;;10.30;9.50;;;;;;;22.87;38.42;95312.78;6140238;28;104054;-53
2022/04/30 11:09:56;;;;;;;8.97;8.30;;;;;;;22.89;38.25;95312.47;6124500;28;104885;-53
2022/04/30 11:13:07;;;;;;;8.80;8.10;;;;;;;22.92;38.74;95312.66;6118172;28;104252;-53
2022/04/30 11:16:17;;;;;;;8.90;8.07;;;;;;;22.92;38.98;95301.19;6134389;28;105128;-54
2022/04/30 11:19:23;;;;;;;9.47;8.67;;;;;;;22.93;39.51;95305.44;6145209;28;103920;-53
2022/04/30 11:22:25;;;;;;;8.70;7.93;;;;;;;22.89;40.03;95301.81;6123457;28;104688;-53
2022/04/30 11:25:37;;;;;;;8.47;7.87;;;;;;;22.87;39.98;95310.13;6134163;28;104570;-53
2022/04/30 11:28:39;;;;;;;9.30;8.40;;;;;;;22.92;39.67;95306.53;6133484;28;103657;-52
2022/04/30 11:31:42;;;;;;;8.80;8.03;;;;;;;22.92;39.29;95301.19;6118832;28;103821;-53
2022/04/30 11:34:44;;;;;;;8.97;8.17;;;;;;;22.91;39.18;95307.63;6141591;28;104110;-52
2022/04/30 11:37:46;;;;;;;8.30;7.47;;;;;;;22.91;39.02;95308.41;6160340;28;103690;-51
2022/04/30 11:40:48;;;;;;;7.43;6.93;;;;;;;22.89;39.12;95305.25;6141374;28;103897;-52
2022/04/30 11:43:58;;;;;;;8.73;7.63;;;;;;;22.87;38.46;95310.13;6125145;28;105055;-53
2022/04/30 11:47:00;;;;;;;6.73;6.23;;;;;;;22.89;38.88;95301.81;6128941;28;104149;-51
2022/04/30 11:50:07;;;;;;;7.87;7.17;;;;;;;22.93;38.83;95303.53;6130784;28;103895;-51
2022/04/30 11:53:09;;;;;;;7.67;6.97;;;;;;;22.92;38.38;95291.31;6145848;28;103733;-53
2022/04/30 11:56:11;;;;;;;7.47;6.77;;;;;;;22.90;39.09;95292.69;6121321;28;104405;-52
2022/04/30 11:59:13;;;;;;;7.63;6.83;;;;;;;22.91;39.11;95292.41;6160165;28;104058;-52
2022/04/30 12:02:16;;;;;;;6.73;6.23;;;;;;;22.91;39.37;95288.94;6139869;28;103806;-52
2022/04/30 12:05:19;;;;;;;7.40;6.80;;;;;;;22.92;39.59;95293.19;6138364;28;103690;-52
2022/04/30 12:08:27;;;;;;;6.90;6.40;;;;;;;22.92;39.28;95295.84;6130249;28;103940;-52
2022/04/30 12:11:39;;;;;;;6.83;6.27;;;;;;;22.91;39.41;95291.59;6136397;28;105072;-57
2022/04/30 12:14:49;;;;;;;7.63;7.03;;;;;;;22.91;40.11;95283.59;6145879;28;105166;-56
2022/04/30 12:24:45;;;;;;;7.13;6.43;;;;;;;22.92;40.12;95287.84;6145378;28;104671;-56
2022/04/30 12:28:06;;;;;;;15.03;7.00;;;;;;;22.92;40.89;95290.50;6139896;28;103731;-57
2022/04/30 12:31:16;;;;;;;7.77;7.07;;;;;;;22.91;40.79;95295.06;6129912;28;104709;-55
2022/04/30 12:34:19;;;;;;;7.60;6.90;;;;;;;22.93;41.05;95292.09;6123216;28;103947;-56
2022/04/30 12:37:33;;;;;;;7.23;6.60;;;;;;;22.89;40.82;95296.47;6160242;28;103855;-58
2022/04/30 12:40:44;;;;;;;7.00;6.50;;;;;;;22.91;40.85;95315.63;6138234;28;104925;-57
2022/04/30 12:43:46;;;;;;;6.97;6.47;;;;;;;22.89;41.16;95299.13;6139773;28;104877;-58
2022/04/30 12:46:49;;;;;;;6.70;6.17;;;;;;;22.88;40.81;95311.69;6158376;28;104888;-56
2022/04/30 12:49:51;;;;;;;7.17;6.57;;;;;;;22.90;41.65;95308.72;6144471;28;104690;-57
2022/04/30 12:52:53;;;;;;;6.87;6.27;;;;;;;22.91;41.52;95312.97;6128190;28;103721;-57
2022/04/30 12:55:55;;;;;;;7.27;6.70;;;;;;;22.89;41.45;95312.47;6139153;28;103815;-54
2022/04/30 12:58:56;;;;;;;7.47;6.97;;;;;;;22.86;41.46;95307.75;6139694;28;103876;-57
2022/04/30 13:01:58;;;;;;;6.80;6.20;;;;;;;22.91;41.86;95307.63;6134003;28;103662;-55
2022/04/30 13:05:00;;;;;;;8.30;6.40;;;;;;;22.91;41.63;95305.75;6145382;28;103827;-58
2022/04/30 13:08:02;;;;;;;6.67;6.17;;;;;;;22.89;41.21;95302.59;6140359;28;105078;-57
2022/04/30 13:14:24;;;;;;;6.07;5.50;;;;;;;22.92;39.69;95312.66;6152863;28;103987;-57
2022/04/30 13:17:26;;;;;;;5.50;5.00;;;;;;;22.89;39.59;95323.16;6163896;28;104954;-57
2022/04/30 13:20:30;;;;;;;5.27;4.87;;;;;;;22.82;39.13;95325.44;6160795;28;104937;-57
2022/04/30 13:23:32;;;;;;;4.37;4.00;;;;;;;22.88;38.62;95327.69;6162124;28;105180;-57
2022/04/30 13:26:34;;;;;;;4.63;4.30;;;;;;;22.88;38.73;95333.03;6140894;28;105023;-57
2022/04/30 13:29:36;;;;;;;7.70;4.40;;;;;;;22.87;38.49;95336.78;6157943;28;104491;-57
2022/04/30 13:32:37;;;;;;;4.97;4.67;;;;;;;22.87;38.93;95336.78;6158825;28;103953;-58
2022/04/30 13:35:39;;;;;;;4.00;3.70;;;;;;;22.88;38.67;95327.69;6137133;28;103869;-57
2022/04/30 13:38:42;;;;;;;3.70;3.50;;;;;;;22.86;38.86;95329.88;6122016;28;103626;-57
2022/04/30 13:41:44;;;;;;;4.40;3.43;;;;;;;22.85;38.70;95330.16;6144324;28;103726;-58
2022/04/30 13:44:45;;;;;;;3.03;2.80;;;;;;;21.71;39.70;95321.38;6148511;28;103886;-56
2022/04/30 13:47:50;;;;;;;3.10;2.80;;;;;;;20.96;40.86;95321.59;6143672;28;104990;-57
2022/04/30 13:50:52;;;;;;;3.57;2.73;;;;;;;21.77;39.92;95325.50;6131978;28;103687;-58
2022/04/30 13:53:54;;;;;;;3.10;2.90;;;;;;;22.19;39.20;95324.44;6139399;28;104010;-56
2022/04/30 13:56:57;;;;;;;3.17;2.97;;;;;;;22.41;39.12;95307.69;6128745;28;104377;-56
2022/04/30 13:59:59;;;;;;;3.80;3.47;;;;;;;22.55;39.86;95302.31;6123598;28;104889;-56
2022/04/30 14:03:02;;;;;;;3.43;3.13;;;;;;;22.64;39.58;95301.28;6143071;28;105096;-57
2022/04/30 14:06:04;;;;;;;3.83;3.63;;;;;;;22.68;40.14;95301.47;6150383;28;104282;-57
2022/04/30 14:09:05;;;;;;;4.10;3.80;;;;;;;22.73;39.72;95297.91;6155868;28;103651;-57
2022/04/30 14:12:08;;;;;;;3.57;3.00;;;;;;;22.78;39.81;95295.13;6123552;28;103941;-55
2022/04/30 14:15:11;;;;;;;3.00;2.80;;;;;;;22.82;40.01;95288.09;6145320;28;104171;-59
2022/04/30 14:18:15;;;;;;;4.40;3.90;;;;;;;22.79;39.60;95289.47;6141215;28;104049;-57
2022/04/30 14:21:17;;;;;;;5.10;3.60;;;;;;;22.79;39.65;95280.69;6141117;28;103897;-54
2022/04/30 14:24:19;;;;;;;4.43;3.37;;;;;;;22.80;40.39;95285.72;6153399;28;104052;-57
2022/04/30 14:27:28;;;;;;;6.37;3.40;;;;;;;22.80;39.76;95277.72;6139461;28;103676;-56
2022/04/30 14:30:30;;;;;;;3.87;3.40;;;;;;;22.80;40.16;95283.06;6144009;28;105136;-55
2022/04/30 14:33:32;;;;;;;2.43;2.33;;;;;;;22.55;37.98;95292.44;6137123;28;104032;-57
2022/04/30 14:36:34;;;;;;;3.00;2.67;;;;;;;22.57;39.06;95289.50;6141361;28;103751;-56
2022/04/30 14:39:36;;;;;;;2.63;2.30;;;;;;;22.62;40.48;95284.81;6143227;28;103804;-55
2022/04/30 14:42:38;;;;;;;3.33;2.33;;;;;;;22.62;39.34;95281.34;6130062;28;104105;-56
2022/04/30 14:45:42;;;;;;;2.63;2.43;;;;;;;22.63;40.29;95282.94;6157083;28;104971;-56
2022/04/30 14:48:44;;;;;;;2.60;2.40;;;;;;;22.62;39.92;95284.81;6130595;28;104293;-56